Time;durP1;ratioP1;P1;durP2;ratioP2;P2;SDS_P1;SDS_P2;PMS_P1;PMS_P2;Temp;Humidity;BMP_temperature;BMP_pressure;BME280_temperature;BME280_humidity;BME280_pressure;Samples;Min_cycle;Max_cycle;Signal;HPM_P1;HPM_P2
2021/11/20 00:01:09;;;;;;;16.77;8.85;;;;;;;;;;5114416;28;20032;-68
2021/11/20 00:03:38;;;;;;;17.65;9.88;;;;;;;;;;5112075;28;20027;-68
2021/11/20 00:06:05;;;;;;;20.23;11.70;;;;;;;;;;5111739;28;20015;-69
2021/11/20 00:08:31;;;;;;;19.45;11.73;;;;;;;;;;5111470;28;20463;-68
2021/11/20 00:10:59;;;;;;;18.27;10.48;;;;;;;;;;5110382;28;20065;-68
2021/11/20 00:13:26;;;;;;;17.25;10.45;;;;;;;;;;5113425;28;20080;-68
2021/11/20 00:15:54;;;;;;;18.17;10.05;;;;;;;;;;5113914;28;20062;-68
2021/11/20 00:18:21;;;;;;;15.88;9.27;;;;;;;;;;5111811;28;20433;-68
2021/11/20 00:20:52;;;;;;;15.10;9.27;;;;;;;;;;5110734;28;20454;-68
2021/11/20 00:23:19;;;;;;;12.55;8.32;;;;;;;;;;5111380;28;20495;-69
2021/11/20 00:25:52;;;;;;;21.83;10.57;;;;;;;;;;5110721;28;20035;-69
2021/11/20 00:28:29;;;;;;;18.23;10.52;;;;;;;;;;5114096;28;20073;-68
2021/11/20 00:30:57;;;;;;;18.88;9.88;;;;;;;;;;5113595;28;20040;-68
2021/11/20 00:33:25;;;;;;;17.92;9.32;;;;;;;;;;5111590;28;20067;-68
2021/11/20 00:35:53;;;;;;;16.85;10.00;;;;;;;;;;5112091;28;20023;-68
2021/11/20 00:38:20;;;;;;;19.33;10.73;;;;;;;;;;5111159;28;20054;-68
2021/11/20 00:40:54;;;;;;;20.48;9.50;;;;;;;;;;5111450;28;20032;-68
2021/11/20 00:43:21;;;;;;;14.95;7.85;;;;;;;;;;5113385;28;20032;-68
2021/11/20 00:45:48;;;;;;;19.08;7.57;;;;;;;;;;5108022;28;20021;-68
2021/11/20 00:48:14;;;;;;;13.73;7.97;;;;;;;;;;5109475;28;20063;-68
2021/11/20 00:50:42;;;;;;;16.73;9.40;;;;;;;;;;5110648;28;20028;-68
2021/11/20 00:53:08;;;;;;;17.67;10.20;;;;;;;;;;5110596;28;20038;-68
2021/11/20 00:55:35;;;;;;;15.13;9.77;;;;;;;;;;5094847;28;20060;-68
2021/11/20 00:58:01;;;;;;;16.88;9.48;;;;;;;;;;5114040;28;20019;-68
2021/11/20 01:00:30;;;;;;;16.67;9.80;;;;;;;;;;5109605;28;20077;-68
2021/11/20 01:02:56;;;;;;;19.20;11.60;;;;;;;;;;5110873;28;20026;-68
2021/11/20 01:05:22;;;;;;;22.33;11.73;;;;;;;;;;5110885;28;20402;-68
2021/11/20 01:07:48;;;;;;;14.57;9.57;;;;;;;;;;5110672;28;20032;-68
2021/11/20 01:10:16;;;;;;;13.60;8.07;;;;;;;;;;5112807;28;20073;-68
2021/11/20 01:12:42;;;;;;;11.23;6.15;;;;;;;;;;5111408;28;20084;-68
2021/11/20 01:15:11;;;;;;;12.85;7.05;;;;;;;;;;5109811;28;20026;-68
2021/11/20 01:17:37;;;;;;;14.18;8.57;;;;;;;;;;5110074;28;20027;-68
2021/11/20 01:20:04;;;;;;;16.02;8.88;;;;;;;;;;5110324;28;20028;-68
2021/11/20 01:22:30;;;;;;;14.07;8.80;;;;;;;;;;5110007;28;20016;-68
2021/11/20 01:24:57;;;;;;;16.33;9.35;;;;;;;;;;5112833;28;20043;-68
2021/11/20 01:27:24;;;;;;;12.20;8.10;;;;;;;;;;5110050;28;20118;-68
2021/11/20 01:29:51;;;;;;;13.02;8.50;;;;;;;;;;5110126;28;20068;-68
2021/11/20 01:32:17;;;;;;;13.05;8.00;;;;;;;;;;5110193;28;20048;-68
2021/11/20 01:34:45;;;;;;;117.90;12.55;;;;;;;;;;5110020;28;20032;-68
2021/11/20 01:37:11;;;;;;;13.68;8.02;;;;;;;;;;5112960;28;20027;-68
2021/11/20 01:39:38;;;;;;;13.15;8.25;;;;;;;;;;5110486;28;20039;-68
2021/11/20 01:42:15;;;;;;;17.50;9.02;;;;;;;;;;5111235;28;20046;-68
2021/11/20 01:44:47;;;;;;;13.95;8.20;;;;;;;;;;5110198;28;20072;-68
2021/11/20 01:47:18;;;;;;;14.48;8.10;;;;;;;;;;5109334;28;20019;-68
2021/11/20 01:49:53;;;;;;;13.07;7.68;;;;;;;;;;5109442;28;20039;-68
2021/11/20 01:52:28;;;;;;;16.90;8.70;;;;;;;;;;5109751;28;20051;-68
2021/11/20 01:55:04;;;;;;;15.73;9.23;;;;;;;;;;5112222;28;20033;-68
2021/11/20 01:57:34;;;;;;;16.80;8.98;;;;;;;;;;5108072;28;20028;-68
2021/11/20 02:00:16;;;;;;;16.60;9.52;;;;;;;;;;5109855;28;20394;-68
2021/11/20 02:02:47;;;;;;;15.38;8.57;;;;;;;;;;5109232;28;20028;-68
2021/11/20 02:05:46;;;;;;;14.98;9.20;;;;;;;;;;5108164;28;20395;-68
2021/11/20 02:08:13;;;;;;;12.68;8.05;;;;;;;;;;5064427;28;20585;-68
2021/11/20 02:10:42;;;;;;;13.80;6.43;;;;;;;;;;5108312;28;20049;-68
2021/11/20 02:13:11;;;;;;;14.60;8.57;;;;;;;;;;5112828;28;20039;-68
2021/11/20 02:15:46;;;;;;;13.88;7.78;;;;;;;;;;5109644;28;20023;-68
2021/11/20 02:18:13;;;;;;;17.45;8.18;;;;;;;;;;5109308;28;20028;-68
2021/11/20 02:20:41;;;;;;;14.85;7.38;;;;;;;;;;5109061;28;20051;-68
2021/11/20 02:23:07;;;;;;;13.68;8.23;;;;;;;;;;5109736;28;20030;-68
2021/11/20 02:25:33;;;;;;;20.45;7.85;;;;;;;;;;5108353;28;20122;-68
2021/11/20 02:28:00;;;;;;;12.15;6.88;;;;;;;;;;5112094;28;20023;-68
2021/11/20 02:30:28;;;;;;;15.35;7.85;;;;;;;;;;5108767;28;20077;-68
2021/11/20 02:33:17;;;;;;;14.85;8.02;;;;;;;;;;5108753;28;20038;-68
2021/11/20 02:35:45;;;;;;;10.45;6.28;;;;;;;;;;5098710;28;20028;-67
2021/11/20 02:38:13;;;;;;;10.90;4.57;;;;;;;;;;5107558;28;20432;-67
2021/11/20 02:40:40;;;;;;;30.75;8.02;;;;;;;;;;5109189;28;20038;-67
2021/11/20 02:43:07;;;;;;;13.07;7.70;;;;;;;;;;5112138;28;20018;-67
2021/11/20 02:45:40;;;;;;;12.23;6.70;;;;;;;;;;5110493;28;20494;-67
2021/11/20 02:48:08;;;;;;;11.55;7.70;;;;;;;;;;5108756;28;20019;-67
2021/11/20 02:50:34;;;;;;;14.45;7.70;;;;;;;;;;5109153;28;20032;-68
2021/11/20 02:53:00;;;;;;;12.95;7.95;;;;;;;;;;5108826;28;20113;-67
2021/11/20 02:55:27;;;;;;;11.95;6.75;;;;;;;;;;5109761;28;20039;-67
2021/11/20 02:57:53;;;;;;;12.07;6.43;;;;;;;;;;5110209;28;20047;-67
2021/11/20 03:00:19;;;;;;;12.70;7.63;;;;;;;;;;5107555;28;20039;-68
2021/11/20 03:02:46;;;;;;;14.27;7.13;;;;;;;;;;5108474;28;20084;-67
2021/11/20 03:05:12;;;;;;;15.90;9.48;;;;;;;;;;5108779;28;20118;-67
2021/11/20 03:07:38;;;;;;;15.32;6.97;;;;;;;;;;5108633;28;20053;-67
2021/11/20 03:10:06;;;;;;;10.77;6.57;;;;;;;;;;5112061;28;20061;-67
2021/11/20 03:12:32;;;;;;;27.87;10.50;;;;;;;;;;5108856;28;20056;-67
2021/11/20 03:14:59;;;;;;;13.82;8.52;;;;;;;;;;5108332;28;20310;-67
2021/11/20 03:17:25;;;;;;;17.05;8.07;;;;;;;;;;5107017;28;20036;-68
2021/11/20 03:19:51;;;;;;;14.90;8.00;;;;;;;;;;5108182;28;20396;-67
2021/11/20 03:22:19;;;;;;;13.88;8.00;;;;;;;;;;5110218;28;20027;-67
2021/11/20 03:24:45;;;;;;;14.63;7.03;;;;;;;;;;5109802;28;20050;-67
2021/11/20 03:27:11;;;;;;;14.38;6.90;;;;;;;;;;5108658;28;20024;-68
2021/11/20 03:29:37;;;;;;;12.82;6.90;;;;;;;;;;5108177;28;20467;-68
2021/11/20 03:32:04;;;;;;;12.35;6.72;;;;;;;;;;5107666;28;20699;-67
2021/11/20 03:34:31;;;;;;;8.63;5.53;;;;;;;;;;5109370;28;20085;-67
2021/11/20 03:36:58;;;;;;;34.95;8.18;;;;;;;;;;5111406;28;20051;-68
2021/11/20 03:39:24;;;;;;;14.05;7.30;;;;;;;;;;5109715;28;20047;-67
2021/11/20 03:41:50;;;;;;;12.23;6.75;;;;;;;;;;5108401;28;20077;-67
2021/11/20 03:44:16;;;;;;;13.50;7.38;;;;;;;;;;5107318;28;20432;-67
2021/11/20 03:46:42;;;;;;;11.73;6.80;;;;;;;;;;5108223;28;20089;-67
2021/11/20 03:49:08;;;;;;;12.32;7.28;;;;;;;;;;5111485;28;20137;-67
2021/11/20 03:51:34;;;;;;;10.38;6.25;;;;;;;;;;5108505;28;20032;-67
2021/11/20 03:54:00;;;;;;;13.05;7.13;;;;;;;;;;5107583;28;20038;-67
2021/11/20 03:56:27;;;;;;;11.15;6.63;;;;;;;;;;5107374;28;20082;-68
2021/11/20 03:58:53;;;;;;;12.82;7.47;;;;;;;;;;5106419;28;20499;-68
2021/11/20 04:01:20;;;;;;;11.27;6.93;;;;;;;;;;5109941;28;20027;-68
2021/11/20 04:03:46;;;;;;;14.15;6.45;;;;;;;;;;5111456;28;20379;-67
2021/11/20 04:06:15;;;;;;;12.13;6.28;;;;;;;;;;5107827;28;20070;-68
2021/11/20 04:08:41;;;;;;;16.15;7.28;;;;;;;;;;5107846;28;20028;-67
2021/11/20 04:11:07;;;;;;;15.48;7.60;;;;;;;;;;5108819;28;20027;-67
2021/11/20 04:13:35;;;;;;;12.88;7.05;;;;;;;;;;5112146;28;20514;-68
2021/11/20 04:16:01;;;;;;;13.35;7.10;;;;;;;;;;5115338;28;20042;-68
2021/11/20 04:18:27;;;;;;;12.35;7.78;;;;;;;;;;5112970;28;20028;-67
2021/11/20 04:20:53;;;;;;;12.07;6.40;;;;;;;;;;5111404;28;20039;-68
2021/11/20 04:23:19;;;;;;;13.40;6.25;;;;;;;;;;5111599;28;20028;-67
2021/11/20 04:25:45;;;;;;;11.68;6.88;;;;;;;;;;5111681;28;20024;-67
2021/11/20 04:28:11;;;;;;;9.73;4.90;;;;;;;;;;5112795;28;20028;-67
2021/11/20 04:30:38;;;;;;;11.43;6.63;;;;;;;;;;5111521;28;20043;-67
2021/11/20 04:33:04;;;;;;;9.32;5.90;;;;;;;;;;5110861;28;20489;-67
2021/11/20 04:35:30;;;;;;;13.32;6.90;;;;;;;;;;5110672;28;20046;-67
2021/11/20 04:37:56;;;;;;;13.18;6.88;;;;;;;;;;5111080;28;20030;-68
2021/11/20 04:40:23;;;;;;;9.85;5.75;;;;;;;;;;5112689;28;20096;-67
2021/11/20 04:42:49;;;;;;;10.25;5.65;;;;;;;;;;5112656;28;20077;-67
2021/11/20 04:45:17;;;;;;;11.15;5.80;;;;;;;;;;5110652;28;20483;-67
2021/11/20 04:47:43;;;;;;;12.48;6.70;;;;;;;;;;5109875;28;20487;-67
2021/11/20 04:50:09;;;;;;;13.18;6.47;;;;;;;;;;5111045;28;20016;-67
2021/11/20 04:52:36;;;;;;;11.25;6.50;;;;;;;;;;5094821;28;20023;-67
2021/11/20 04:55:03;;;;;;;10.35;5.57;;;;;;;;;;5114421;28;20015;-67
2021/11/20 04:57:30;;;;;;;12.60;6.27;;;;;;;;;;5109392;28;20444;-67
2021/11/20 04:59:56;;;;;;;8.30;4.95;;;;;;;;;;5109865;28;20042;-67
2021/11/20 05:02:22;;;;;;;12.38;5.03;;;;;;;;;;5110892;28;20020;-67
2021/11/20 05:04:48;;;;;;;9.52;5.35;;;;;;;;;;5111075;28;20117;-67
2021/11/20 05:07:16;;;;;;;7.13;4.40;;;;;;;;;;5113085;28;20479;-67
2021/11/20 05:09:42;;;;;;;7.53;4.25;;;;;;;;;;5111517;28;20046;-67
2021/11/20 05:12:09;;;;;;;8.68;4.35;;;;;;;;;;5109673;28;20016;-67
2021/11/20 05:14:36;;;;;;;10.02;5.32;;;;;;;;;;5110810;28;20490;-66
2021/11/20 05:17:03;;;;;;;11.27;5.43;;;;;;;;;;5110371;28;20026;-67
2021/11/20 05:19:29;;;;;;;9.70;5.50;;;;;;;;;;5110943;27;20048;-67
2021/11/20 05:21:56;;;;;;;11.10;5.80;;;;;;;;;;5112998;28;20024;-67
2021/11/20 05:24:21;;;;;;;8.70;5.03;;;;;;;;;;5109129;28;20024;-67
2021/11/20 05:26:51;;;;;;;9.55;5.10;;;;;;;;;;5110331;28;20030;-66
2021/11/20 05:32:01;;;;;;;10.38;5.50;;;;;;;;;;5110603;28;20047;-67
2021/11/20 05:34:27;;;;;;;10.95;5.50;;;;;;;;;;5111194;28;20082;-66
2021/11/20 05:36:53;;;;;;;9.82;4.70;;;;;;;;;;5112571;28;20067;-67
2021/11/20 05:39:19;;;;;;;7.80;4.47;;;;;;;;;;5109806;28;20583;-67
2021/11/20 05:41:46;;;;;;;6.70;4.18;;;;;;;;;;5108665;28;20064;-67
2021/11/20 05:44:12;;;;;;;8.43;4.93;;;;;;;;;;5110198;28;20095;-67
2021/11/20 05:46:39;;;;;;;8.65;4.88;;;;;;;;;;5109520;28;20031;-66
2021/11/20 05:49:05;;;;;;;8.25;4.18;;;;;;;;;;5111487;28;20020;-67
2021/11/20 05:51:31;;;;;;;6.45;3.92;;;;;;;;;;5109433;28;20086;-67
2021/11/20 05:53:57;;;;;;;8.68;3.53;;;;;;;;;;5109324;28;20026;-66
2021/11/20 05:56:25;;;;;;;8.30;3.42;;;;;;;;;;5107025;28;20036;-66
2021/11/20 05:58:51;;;;;;;6.13;3.78;;;;;;;;;;5102717;28;20020;-67
2021/11/20 06:01:17;;;;;;;6.70;3.30;;;;;;;;;;5106643;27;20053;-66
2021/11/20 06:03:44;;;;;;;9.02;3.38;;;;;;;;;;5105808;28;20111;-67
2021/11/20 06:06:10;;;;;;;6.72;3.15;;;;;;;;;;5102926;28;20032;-67
2021/11/20 06:08:36;;;;;;;8.77;4.82;;;;;;;;;;5101288;28;20047;-67
2021/11/20 06:11:03;;;;;;;11.27;5.53;;;;;;;;;;5102835;28;20054;-68
2021/11/20 06:13:29;;;;;;;10.57;4.35;;;;;;;;;;5102607;28;20024;-68
2021/11/20 06:15:57;;;;;;;5.88;3.00;;;;;;;;;;5105312;28;20024;-67
2021/11/20 06:18:23;;;;;;;7.40;3.90;;;;;;;;;;5102879;28;20540;-67
2021/11/20 06:20:50;;;;;;;9.30;4.93;;;;;;;;;;5102697;28;20032;-67
2021/11/20 06:23:17;;;;;;;10.73;5.10;;;;;;;;;;5102875;28;20054;-67
2021/11/20 06:25:43;;;;;;;9.23;5.03;;;;;;;;;;5102554;28;20115;-65
2021/11/20 06:28:09;;;;;;;8.85;4.88;;;;;;;;;;5103379;28;20537;-66
2021/11/20 06:30:35;;;;;;;11.60;5.43;;;;;;;;;;5103716;28;20038;-65
2021/11/20 06:33:01;;;;;;;7.10;4.50;;;;;;;;;;5105465;28;20023;-67
2021/11/20 06:35:29;;;;;;;7.80;4.50;;;;;;;;;;5107121;28;20028;-68
2021/11/20 06:37:56;;;;;;;7.40;4.10;;;;;;;;;;5103542;28;20027;-66
2021/11/20 06:40:24;;;;;;;7.72;3.90;;;;;;;;;;5105970;28;20039;-66
2021/11/20 06:42:50;;;;;;;9.77;5.78;;;;;;;;;;5104238;28;20023;-67
2021/11/20 06:45:20;;;;;;;10.13;5.78;;;;;;;;;;5108791;28;20038;-67
2021/11/20 06:47:46;;;;;;;9.02;4.53;;;;;;;;;;5104421;28;20089;-67
2021/11/20 06:50:12;;;;;;;10.43;5.32;;;;;;;;;;5103994;28;20212;-67
2021/11/20 06:52:39;;;;;;;9.80;4.53;;;;;;;;;;5106053;28;20019;-66
2021/11/20 06:55:05;;;;;;;8.52;4.50;;;;;;;;;;5106887;28;20475;-65
2021/11/20 07:00:27;;;;;;;7.88;4.60;;;;;;;;;;5107653;28;20039;-67
2021/11/20 07:02:55;;;;;;;7.38;4.07;;;;;;;;;;5108743;28;20077;-67
2021/11/20 07:05:22;;;;;;;6.95;3.67;;;;;;;;;;5110116;28;20051;-67
2021/11/20 07:07:48;;;;;;;7.95;4.10;;;;;;;;;;5108593;28;20451;-67
2021/11/20 07:10:16;;;;;;;6.05;3.70;;;;;;;;;;5103084;28;20483;-67
2021/11/20 07:12:43;;;;;;;11.63;5.38;;;;;;;;;;5102667;28;20030;-68
2021/11/20 07:15:10;;;;;;;9.73;4.63;;;;;;;;;;5105686;28;20115;-67
2021/11/20 07:17:36;;;;;;;10.32;5.03;;;;;;;;;;5106262;28;20028;-67
2021/11/20 07:20:03;;;;;;;9.90;5.30;;;;;;;;;;5107354;28;20042;-68
2021/11/20 07:22:29;;;;;;;13.02;5.95;;;;;;;;;;5105873;28;20038;-68
2021/11/20 07:24:55;;;;;;;20.85;9.45;;;;;;;;;;5107523;28;20471;-67
2021/11/20 07:27:21;;;;;;;53.08;30.20;;;;;;;;;;5107194;28;20063;-66
2021/11/20 07:29:47;;;;;;;35.10;18.98;;;;;;;;;;5105951;28;20405;-66
2021/11/20 07:32:13;;;;;;;28.98;17.08;;;;;;;;;;5100697;28;20043;-67
2021/11/20 07:34:39;;;;;;;32.05;17.95;;;;;;;;;;5106475;28;20493;-66
2021/11/20 07:37:05;;;;;;;39.95;27.23;;;;;;;;;;5110702;28;20023;-66
2021/11/20 07:39:32;;;;;;;36.10;23.83;;;;;;;;;;5106822;28;20100;-66
2021/11/20 07:41:58;;;;;;;29.85;19.95;;;;;;;;;;5104062;28;20038;-66
2021/11/20 07:44:24;;;;;;;34.17;21.52;;;;;;;;;;5094273;28;20030;-66
2021/11/20 07:46:50;;;;;;;23.27;14.80;;;;;;;;;;5108864;28;20028;-67
2021/11/20 07:49:16;;;;;;;20.50;13.48;;;;;;;;;;5111623;28;20031;-69
2021/11/20 07:51:43;;;;;;;8.95;5.15;;;;;;;;;;5112919;28;20518;-68
2021/11/20 07:54:10;;;;;;;7.80;4.88;;;;;;;;;;5111626;27;20038;-68
2021/11/20 07:56:41;;;;;;;5.13;3.15;;;;;;;;;;5111591;28;20019;-68
2021/11/20 07:59:08;;;;;;;8.10;3.42;;;;;;;;;;5111857;28;20509;-68
2021/11/20 08:01:34;;;;;;;6.43;3.97;;;;;;;;;;5112874;28;20028;-68
2021/11/20 08:04:00;;;;;;;6.43;4.20;;;;;;;;;;5107755;28;20024;-69
2021/11/20 08:06:27;;;;;;;6.97;4.88;;;;;;;;;;5107733;28;20024;-68
2021/11/20 08:08:52;;;;;;;7.07;5.05;;;;;;;;;;5110091;28;20019;-68
2021/11/20 08:11:19;;;;;;;6.85;3.40;;;;;;;;;;5111810;28;20032;-68
2021/11/20 08:13:45;;;;;;;5.38;2.90;;;;;;;;;;5111850;28;20031;-68
2021/11/20 08:16:11;;;;;;;5.45;2.65;;;;;;;;;;5113924;28;21419;-68
2021/11/20 08:18:37;;;;;;;9.55;3.42;;;;;;;;;;5112632;28;20084;-67
2021/11/20 08:21:03;;;;;;;5.45;2.90;;;;;;;;;;5111606;28;20491;-67
2021/11/20 08:23:30;;;;;;;3.95;2.40;;;;;;;;;;5113146;28;20046;-67
2021/11/20 08:25:56;;;;;;;4.95;2.70;;;;;;;;;;5110677;28;20073;-67
2021/11/20 08:28:24;;;;;;;4.40;2.70;;;;;;;;;;5112195;28;20027;-67
2021/11/20 08:30:50;;;;;;;4.90;2.92;;;;;;;;;;5111135;28;20093;-69
2021/11/20 08:33:16;;;;;;;4.55;2.72;;;;;;;;;;5109489;28;20024;-69
2021/11/20 08:35:42;;;;;;;5.68;3.25;;;;;;;;;;5109026;28;20020;-69
2021/11/20 08:38:09;;;;;;;5.63;3.75;;;;;;;;;;5109861;28;20425;-69
2021/11/20 08:40:36;;;;;;;6.00;3.95;;;;;;;;;;5094418;28;20486;-68
2021/11/20 08:43:03;;;;;;;7.78;3.50;;;;;;;;;;5113852;28;20035;-69
2021/11/20 08:45:31;;;;;;;5.85;3.55;;;;;;;;;;5111073;28;20076;-69
2021/11/20 08:47:57;;;;;;;7.50;4.95;;;;;;;;;;5111321;28;20478;-69
2021/11/20 08:50:26;;;;;;;7.90;4.47;;;;;;;;;;5110851;28;20032;-69
2021/11/20 08:52:52;;;;;;;;;;;;;;;;;;5111873;28;20050;-66
2021/11/20 08:55:18;;;;;;;6.75;4.18;;;;;;;;;;5113750;28;19903;-69
2021/11/20 08:57:44;;;;;;;7.07;4.03;;;;;;;;;;5109273;28;20460;-68
2021/11/20 09:00:17;;;;;;;7.03;4.05;;;;;;;;;;5110643;28;20039;-69
2021/11/20 09:03:01;;;;;;;6.10;2.70;;;;;;;;;;5110575;28;20387;-68
2021/11/20 09:05:31;;;;;;;4.18;2.40;;;;;;;;;;5110584;28;20472;-68
2021/11/20 09:08:03;;;;;;;4.05;2.20;;;;;;;;;;5110760;28;20020;-69
2021/11/20 09:10:35;;;;;;;3.03;1.80;;;;;;;;;;5112175;28;20023;-68
2021/11/20 09:13:13;;;;;;;3.28;2.40;;;;;;;;;;5114050;28;20019;-67
2021/11/20 09:15:41;;;;;;;10.15;3.85;;;;;;;;;;5110243;28;20027;-67
2021/11/20 09:18:07;;;;;;;6.60;4.47;;;;;;;;;;5110366;28;20102;-67
2021/11/20 09:20:34;;;;;;;5.82;3.53;;;;;;;;;;5110629;28;20497;-68
2021/11/20 09:23:00;;;;;;;5.32;3.45;;;;;;;;;;5110099;28;20464;-68
2021/11/20 09:25:26;;;;;;;9.30;4.25;;;;;;;;;;5112023;28;20486;-67
2021/11/20 09:27:52;;;;;;;6.72;3.78;;;;;;;;;;5111757;28;20053;-66
2021/11/20 09:30:20;;;;;;;5.20;3.22;;;;;;;;;;5111430;28;20028;-65
2021/11/20 09:32:46;;;;;;;6.32;2.63;;;;;;;;;;5104928;27;20036;-66
2021/11/20 09:35:13;;;;;;;4.00;2.65;;;;;;;;;;5104824;28;20383;-66
2021/11/20 09:37:39;;;;;;;7.28;3.40;;;;;;;;;;5101497;28;20467;-66
2021/11/20 09:40:06;;;;;;;6.35;3.47;;;;;;;;;;5105794;28;20040;-65
2021/11/20 09:42:47;;;;;;;4.65;2.80;;;;;;;;;;5104412;28;20019;-66
2021/11/20 09:45:22;;;;;;;3.63;2.40;;;;;;;;;;5106556;28;20114;-66
2021/11/20 09:47:53;;;;;;;3.88;2.33;;;;;;;;;;5105537;28;20414;-67
2021/11/20 09:50:21;;;;;;;3.22;1.92;;;;;;;;;;5105504;28;20023;-66
2021/11/20 09:52:48;;;;;;;3.60;1.85;;;;;;;;;;5102345;28;20024;-66
2021/11/20 09:55:17;;;;;;;1.48;1.17;;;;;;;;;;5104310;28;20031;-67
2021/11/20 09:57:47;;;;;;;2.70;1.35;;;;;;;;;;5107213;28;20100;-67
2021/11/20 10:00:13;;;;;;;3.38;1.67;;;;;;;;;;5107368;28;20071;-67
2021/11/20 10:02:48;;;;;;;3.53;1.58;;;;;;;;;;5107908;28;20034;-67
2021/11/20 10:05:18;;;;;;;3.17;1.30;;;;;;;;;;5107309;28;20027;-67
2021/11/20 10:07:50;;;;;;;3.03;1.30;;;;;;;;;;5104743;28;20087;-67
2021/11/20 10:10:15;;;;;;;2.47;1.30;;;;;;;;;;5104783;28;20130;-68
2021/11/20 10:12:41;;;;;;;1.95;1.30;;;;;;;;;;5105761;28;20523;-69
2021/11/20 10:15:14;;;;;;;3.22;1.63;;;;;;;;;;5107658;28;20463;-69
2021/11/20 10:17:46;;;;;;;2.42;1.50;;;;;;;;;;5106273;28;20084;-69
2021/11/20 10:20:27;;;;;;;5.07;2.28;;;;;;;;;;5104935;28;20070;-68
2021/11/20 10:23:09;;;;;;;8.00;2.92;;;;;;;;;;5106293;28;20471;-67
2021/11/20 10:25:50;;;;;;;6.80;3.70;;;;;;;;;;5105462;28;20441;-68
2021/11/20 10:28:16;;;;;;;6.55;3.50;;;;;;;;;;5104476;28;20087;-69
2021/11/20 10:30:42;;;;;;;8.15;4.68;;;;;;;;;;5106036;28;20529;-68
2021/11/20 10:33:17;;;;;;;5.25;3.60;;;;;;;;;;5104898;28;20479;-67
2021/11/20 10:35:48;;;;;;;4.75;3.00;;;;;;;;;;5104629;28;20027;-67
2021/11/20 10:38:22;;;;;;;3.95;2.20;;;;;;;;;;5107671;28;20043;-68
2021/11/20 10:40:57;;;;;;;7.05;3.58;;;;;;;;;;5098061;28;20373;-68
2021/11/20 10:43:43;;;;;;;4.95;1.75;;;;;;;;;;5103399;28;20078;-68
2021/11/20 10:46:30;;;;;;;1.92;1.10;;;;;;;;;;5102684;28;20023;-68
2021/11/20 10:49:14;;;;;;;2.90;1.10;;;;;;;;;;5104965;28;20420;-68
2021/11/20 10:51:52;;;;;;;2.80;1.20;;;;;;;;;;5104678;28;20030;-68
2021/11/20 10:54:18;;;;;;;;;;;;;;;;;;5109290;28;20425;-66
2021/11/20 10:56:44;;;;;;;5.18;1.85;;;;;;;;;;5105771;28;19956;-68
2021/11/20 10:59:10;;;;;;;2.90;1.40;;;;;;;;;;5103095;28;20019;-67
2021/11/20 11:01:47;;;;;;;2.38;1.65;;;;;;;;;;5105311;28;20336;-68
2021/11/20 11:04:22;;;;;;;3.47;1.80;;;;;;;;;;5105121;28;20035;-66
2021/11/20 11:07:07;;;;;;;2.92;1.38;;;;;;;;;;5102415;28;20036;-68
2021/11/20 11:09:49;;;;;;;2.20;0.82;;;;;;;;;;5104886;28;20514;-67
2021/11/20 11:12:21;;;;;;;0.73;0.30;;;;;;;;;;5103319;28;20125;-66
2021/11/20 11:15:16;;;;;;;2.05;0.40;;;;;;;;;;5105111;28;20016;-67
2021/11/20 11:17:59;;;;;;;0.75;0.30;;;;;;;;;;5048260;28;20037;-65
2021/11/20 11:20:34;;;;;;;8.63;3.05;;;;;;;;;;5100096;28;20079;-66
2021/11/20 11:23:26;;;;;;;2.35;0.90;;;;;;;;;;5112935;28;20376;-66
2021/11/20 11:25:58;;;;;;;1.70;0.75;;;;;;;;;;5087364;28;20051;-66
2021/11/20 11:28:34;;;;;;;0.60;0.40;;;;;;;;;;5103636;28;20064;-65
2021/11/20 11:31:09;;;;;;;0.90;0.43;;;;;;;;;;5106638;28;20530;-67
2021/11/20 11:33:36;;;;;;;0.55;0.30;;;;;;;;;;5100596;28;20035;-65
2021/11/20 11:36:02;;;;;;;0.30;0.30;;;;;;;;;;5107883;28;20570;-67
2021/11/20 11:38:34;;;;;;;0.75;0.40;;;;;;;;;;5108150;28;20111;-66
2021/11/20 11:41:16;;;;;;;0.82;0.60;;;;;;;;;;5111835;28;20032;-67
2021/11/20 11:44:00;;;;;;;0.98;0.57;;;;;;;;;;5095620;28;20024;-66
2021/11/20 11:46:47;;;;;;;0.73;0.60;;;;;;;;;;5107424;28;20020;-67
2021/11/20 11:49:32;;;;;;;1.75;0.70;;;;;;;;;;5105472;28;20020;-67
2021/11/20 11:52:00;;;;;;;3.33;0.68;;;;;;;;;;5105209;28;20039;-67
2021/11/20 11:54:49;;;;;;;2.92;0.60;;;;;;;;;;5108006;28;20024;-67
2021/11/20 11:57:15;;;;;;;1.30;0.38;;;;;;;;;;5079058;28;20169;-69
2021/11/20 11:59:52;;;;;;;1.27;0.35;;;;;;;;;;5112119;27;20035;-67
2021/11/20 12:02:20;;;;;;;0.52;0.30;;;;;;;;;;5111926;28;20459;-68
2021/11/20 12:04:51;;;;;;;0.40;0.30;;;;;;;;;;5111236;28;20051;-68
2021/11/20 12:07:26;;;;;;;2.70;0.30;;;;;;;;;;5103823;28;20024;-68
2021/11/20 12:09:54;;;;;;;0.30;0.22;;;;;;;;;;5112999;28;20038;-68
2021/11/20 12:12:29;;;;;;;0.85;0.40;;;;;;;;;;5111200;28;20036;-68
2021/11/20 12:15:06;;;;;;;0.77;0.30;;;;;;;;;;5108053;28;20028;-66
2021/11/20 12:17:44;;;;;;;1.90;0.30;;;;;;;;;;5108243;28;20081;-69
2021/11/20 12:20:13;;;;;;;0.20;0.17;;;;;;;;;;5088951;28;20402;-67
2021/11/20 12:22:53;;;;;;;0.25;0.15;;;;;;;;;;5095263;28;20027;-69
2021/11/20 12:25:22;;;;;;;0.30;0.20;;;;;;;;;;5113173;28;20031;-69
2021/11/20 12:27:48;;;;;;;0.75;0.30;;;;;;;;;;5111619;28;20063;-69
2021/11/20 12:30:14;;;;;;;0.60;0.40;;;;;;;;;;5106760;28;20059;-67
2021/11/20 12:32:46;;;;;;;1.88;0.40;;;;;;;;;;5098739;28;20047;-68
2021/11/20 12:35:22;;;;;;;1.00;0.60;;;;;;;;;;5099479;28;20062;-68
2021/11/20 12:37:48;;;;;;;1.42;0.45;;;;;;;;;;5107578;28;20570;-67
2021/11/20 12:40:29;;;;;;;0.73;0.50;;;;;;;;;;5090792;27;20036;-66
2021/11/20 12:43:01;;;;;;;1.95;0.40;;;;;;;;;;5111934;28;20088;-66
2021/11/20 12:45:46;;;;;;;1.77;0.43;;;;;;;;;;5108994;28;20098;-63
2021/11/20 12:48:15;;;;;;;2.03;0.30;;;;;;;;;;5110748;28;20062;-64
2021/11/20 12:51:04;;;;;;;0.40;0.30;;;;;;;;;;5109576;28;20023;-62
2021/11/20 12:53:32;;;;;;;0.28;0.28;;;;;;;;;;5110463;28;20054;-65
2021/11/20 12:56:01;;;;;;;1.65;0.50;;;;;;;;;;5110245;28;20107;-66
2021/11/20 12:58:33;;;;;;;3.65;0.55;;;;;;;;;;5098479;28;20028;-69
2021/11/20 13:00:59;;;;;;;0.88;0.50;;;;;;;;;;5113160;28;20091;-70
2021/11/20 13:03:34;;;;;;;6.00;2.40;;;;;;;;;;5110289;28;20440;-69
2021/11/20 13:06:03;;;;;;;2.38;1.08;;;;;;;;;;5108456;28;20050;-69
2021/11/20 13:08:29;;;;;;;;;;;;;;;;;;5106297;28;20020;-66
2021/11/20 13:10:55;;;;;;;5.82;1.00;;;;;;;;;;5103383;28;19968;-67
2021/11/20 13:13:23;;;;;;;1.23;0.77;;;;;;;;;;5102099;28;20454;-66
2021/11/20 13:16:02;;;;;;;2.75;1.48;;;;;;;;;;5112278;28;20076;-65
2021/11/20 13:18:36;;;;;;;3.53;1.00;;;;;;;;;;5110688;28;20038;-67
2021/11/20 13:21:02;;;;;;;2.65;1.00;;;;;;;;;;5110659;28;20039;-64
2021/11/20 13:23:29;;;;;;;1.95;1.23;;;;;;;;;;5111732;28;20034;-69
2021/11/20 13:26:01;;;;;;;2.25;1.10;;;;;;;;;;5109639;28;20024;-65
2021/11/20 13:28:47;;;;;;;1.83;1.20;;;;;;;;;;5112006;28;20039;-69
2021/11/20 13:31:17;;;;;;;3.58;0.80;;;;;;;;;;5101190;28;20052;-68
2021/11/20 13:33:44;;;;;;;2.80;1.30;;;;;;;;;;5098725;28;20066;-68
2021/11/20 13:36:10;;;;;;;6.75;3.65;;;;;;;;;;5107098;28;20028;-67
2021/11/20 13:38:37;;;;;;;2.95;1.95;;;;;;;;;;5107526;28;20031;-68
2021/11/20 13:41:03;;;;;;;4.03;1.60;;;;;;;;;;5110067;28;20099;-68
2021/11/20 13:43:34;;;;;;;4.43;1.08;;;;;;;;;;5109103;28;20039;-67
2021/11/20 13:46:07;;;;;;;3.25;1.60;;;;;;;;;;5107349;28;20053;-67
2021/11/20 13:48:33;;;;;;;3.55;1.70;;;;;;;;;;5108855;28;20490;-68
2021/11/20 13:51:00;;;;;;;3.90;1.45;;;;;;;;;;5109313;28;20024;-67
2021/11/20 13:53:35;;;;;;;2.13;1.20;;;;;;;;;;5100340;28;20028;-67
2021/11/20 13:56:05;;;;;;;4.05;2.40;;;;;;;;;;5104056;28;20055;-67
2021/11/20 13:58:34;;;;;;;5.65;1.90;;;;;;;;;;5110432;28;20112;-67
2021/11/20 14:01:01;;;;;;;5.20;2.83;;;;;;;;;;5111454;28;20055;-68
2021/11/20 14:03:28;;;;;;;3.83;1.98;;;;;;;;;;5109141;28;20122;-68
2021/11/20 14:05:54;;;;;;;8.20;4.30;;;;;;;;;;5097248;28;20030;-67
2021/11/20 14:08:20;;;;;;;11.18;6.90;;;;;;;;;;5106901;28;20027;-68
2021/11/20 14:11:08;;;;;;;7.45;4.22;;;;;;;;;;5109366;28;20031;-69
2021/11/20 14:13:35;;;;;;;9.20;4.85;;;;;;;;;;5109623;28;20023;-68
2021/11/20 14:16:02;;;;;;;6.70;3.33;;;;;;;;;;5111703;28;20068;-68
2021/11/20 14:18:29;;;;;;;8.10;2.97;;;;;;;;;;5109186;28;20027;-68
2021/11/20 14:21:02;;;;;;;6.50;3.47;;;;;;;;;;5108833;28;20071;-68
2021/11/20 14:23:32;;;;;;;3.92;2.10;;;;;;;;;;5108645;28;20096;-69
2021/11/20 14:26:04;;;;;;;3.90;1.73;;;;;;;;;;5108568;28;20019;-69
2021/11/20 14:28:41;;;;;;;5.32;3.03;;;;;;;;;;5110257;28;20463;-69
2021/11/20 14:31:08;;;;;;;3.13;1.27;;;;;;;;;;5108481;28;20051;-69
2021/11/20 14:33:34;;;;;;;3.13;1.50;;;;;;;;;;5110498;28;20035;-69
2021/11/20 14:36:05;;;;;;;6.53;3.72;;;;;;;;;;5108332;28;20036;-70
2021/11/20 14:38:32;;;;;;;7.28;2.80;;;;;;;;;;5108871;28;20745;-70
2021/11/20 14:41:00;;;;;;;7.95;3.83;;;;;;;;;;5108935;28;20031;-70
2021/11/20 14:43:28;;;;;;;8.18;4.57;;;;;;;;;;5110387;28;20035;-69
2021/11/20 14:45:55;;;;;;;12.98;4.50;;;;;;;;;;5110195;28;20110;-69
2021/11/20 14:48:31;;;;;;;7.72;4.63;;;;;;;;;;5108730;28;20020;-69
2021/11/20 14:50:58;;;;;;;8.43;5.00;;;;;;;;;;5108561;28;20101;-69
2021/11/20 14:53:33;;;;;;;8.60;4.85;;;;;;;;;;5107054;28;20024;-69
2021/11/20 14:56:11;;;;;;;12.13;4.85;;;;;;;;;;5107546;28;20486;-70